createdAt,value
2023-02-09T00:00:06.522Z,969.05
2023-02-09T00:00:17.567Z,969.05
2023-02-09T00:00:28.536Z,969.05
2023-02-09T00:00:39.307Z,969.04
2023-02-09T00:00:50.348Z,969.04
2023-02-09T00:01:01.315Z,969.04
2023-02-09T00:01:12.094Z,969.04
2023-02-09T00:01:23.196Z,969.03
2023-02-09T00:01:34.126Z,969.02
2023-02-09T00:01:44.996Z,969.02
2023-02-09T00:01:55.641Z,969.02
2023-02-09T00:02:06.630Z,969.02
2023-02-09T00:02:17.505Z,969.00
2023-02-09T00:02:28.136Z,969.01
2023-02-09T00:02:39.078Z,969.01
2023-02-09T00:02:49.851Z,969.00
2023-02-09T00:03:00.905Z,969.00
2023-02-09T00:03:11.888Z,968.99
2023-02-09T00:03:22.672Z,968.99
2023-02-09T00:03:33.757Z,968.99
2023-02-09T00:03:44.763Z,968.98
2023-02-09T00:03:55.542Z,968.99
2023-02-09T00:04:06.582Z,969.00
2023-02-09T00:04:17.553Z,969.00
2023-02-09T00:04:28.330Z,969.01
2023-02-09T00:04:39.380Z,968.99
2023-02-09T00:04:50.351Z,968.99
2023-02-09T00:05:01.108Z,968.99
2023-02-09T00:05:12.158Z,969.00
2023-02-09T00:05:23.131Z,969.00
2023-02-09T00:05:33.894Z,969.01
2023-02-09T00:05:44.939Z,969.01
2023-02-09T00:05:55.904Z,969.01
2023-02-09T00:06:06.687Z,969.00
2023-02-09T00:06:17.739Z,968.99
2023-02-09T00:06:28.704Z,968.99
2023-02-09T00:06:39.475Z,969.00
2023-02-09T00:06:50.529Z,969.00
2023-02-09T00:07:01.548Z,969.00
2023-02-09T00:07:12.270Z,969.00
2023-02-09T00:07:23.320Z,968.99
2023-02-09T00:07:34.295Z,969.00
2023-02-09T00:07:45.060Z,968.99
2023-02-09T00:07:56.107Z,968.99
2023-02-09T00:08:07.085Z,969.00
2023-02-09T00:08:17.854Z,969.00
2023-02-09T00:08:28.910Z,969.00
2023-02-09T00:08:39.890Z,968.99
2023-02-09T00:08:50.634Z,968.99
2023-02-09T00:09:01.685Z,968.99
2023-02-09T00:09:12.652Z,968.99
2023-02-09T00:09:23.448Z,969.01
2023-02-09T00:09:34.488Z,969.01
2023-02-09T00:09:45.459Z,969.01
2023-02-09T00:09:56.229Z,969.01
2023-02-09T00:10:07.322Z,969.02
2023-02-09T00:10:18.282Z,969.03
2023-02-09T00:10:29.047Z,969.03
2023-02-09T00:10:40.101Z,969.04
2023-02-09T00:10:51.082Z,969.05
2023-02-09T00:11:01.852Z,969.05
2023-02-09T00:11:12.896Z,969.04
2023-02-09T00:11:23.895Z,969.04
2023-02-09T00:11:34.661Z,969.05
2023-02-09T00:11:45.715Z,969.06
2023-02-09T00:11:56.689Z,969.05
2023-02-09T00:12:07.452Z,969.05
2023-02-09T00:12:18.504Z,969.06
2023-02-09T00:12:29.464Z,969.05
2023-02-09T00:12:40.254Z,969.06
2023-02-09T00:12:51.311Z,969.06
2023-02-09T00:13:02.276Z,969.05
2023-02-09T00:13:13.041Z,969.06
2023-02-09T00:13:24.110Z,969.06
2023-02-09T00:13:35.066Z,969.06
2023-02-09T00:13:45.839Z,969.06
2023-02-09T00:13:56.880Z,969.04
2023-02-09T00:14:07.903Z,969.05
2023-02-09T00:14:21.543Z,969.05
2023-02-09T00:14:29.745Z,969.05
2023-02-09T00:14:40.707Z,969.04
2023-02-09T00:14:51.471Z,969.03
2023-02-09T00:15:02.522Z,969.03
2023-02-09T00:15:13.489Z,969.03
2023-02-09T00:15:24.269Z,969.04
2023-02-09T00:15:35.301Z,969.04
2023-02-09T00:15:46.274Z,969.05
2023-02-09T00:15:57.046Z,969.05
2023-02-09T00:16:08.170Z,969.05
2023-02-09T00:16:19.118Z,969.06
2023-02-09T00:16:29.904Z,969.06
2023-02-09T00:16:41.017Z,969.07
2023-02-09T00:16:52.038Z,969.08
2023-02-09T00:17:02.768Z,969.07
2023-02-09T00:17:13.817Z,969.08
2023-02-09T00:17:24.784Z,969.08
2023-02-09T00:17:35.561Z,969.07
2023-02-09T00:17:46.613Z,969.06
2023-02-09T00:17:57.583Z,969.07
2023-02-09T00:18:08.362Z,969.06
2023-02-09T00:18:19.410Z,969.07
2023-02-09T00:18:30.371Z,969.06
2023-02-09T00:18:41.154Z,969.06
2023-02-09T00:18:52.197Z,969.07
2023-02-09T00:19:03.162Z,969.07
2023-02-09T00:19:13.930Z,969.08
2023-02-09T00:19:24.975Z,969.08
2023-02-09T00:19:35.940Z,969.08
2023-02-09T00:19:46.734Z,969.08
2023-02-09T00:19:57.783Z,969.08
2023-02-09T00:20:08.752Z,969.07
2023-02-09T00:20:19.541Z,969.07
2023-02-09T00:20:30.588Z,969.07
2023-02-09T00:20:41.557Z,969.07
2023-02-09T00:20:52.320Z,969.08
2023-02-09T00:21:03.370Z,969.07
2023-02-09T00:21:14.336Z,969.08
2023-02-09T00:21:25.102Z,969.09
2023-02-09T00:21:36.153Z,969.08
2023-02-09T00:21:47.115Z,969.08
2023-02-09T00:21:57.897Z,969.08
2023-02-09T00:22:08.937Z,969.06
2023-02-09T00:22:19.916Z,969.07
2023-02-09T00:22:30.678Z,969.07
2023-02-09T00:22:41.724Z,969.07
2023-02-09T00:22:52.696Z,969.07
2023-02-09T00:23:03.467Z,969.07
2023-02-09T00:23:14.541Z,969.08
2023-02-09T00:23:25.509Z,969.09
2023-02-09T00:23:36.273Z,969.08
2023-02-09T00:23:47.334Z,969.08
2023-02-09T00:23:58.300Z,969.08
2023-02-09T00:24:09.075Z,969.08
2023-02-09T00:24:20.140Z,969.09
2023-02-09T00:24:31.093Z,969.09
2023-02-09T00:24:41.870Z,969.10
2023-02-09T00:24:52.916Z,969.10
2023-02-09T00:25:03.905Z,969.08
2023-02-09T00:25:14.654Z,969.09
2023-02-09T00:25:25.699Z,969.08
2023-02-09T00:25:36.665Z,969.09
2023-02-09T00:25:47.444Z,969.09
2023-02-09T00:25:58.496Z,969.09
2023-02-09T00:26:09.473Z,969.10
2023-02-09T00:26:20.237Z,969.11
2023-02-09T00:26:31.281Z,969.12
2023-02-09T00:26:42.249Z,969.11
2023-02-09T00:26:53.023Z,969.11
2023-02-09T00:27:04.098Z,969.12
2023-02-09T00:27:15.034Z,969.11
2023-02-09T00:27:25.827Z,969.11
2023-02-09T00:27:36.858Z,969.11
2023-02-09T00:27:47.829Z,969.12
2023-02-09T00:27:58.599Z,969.11
2023-02-09T00:28:09.708Z,969.11
2023-02-09T00:28:20.672Z,969.11
2023-02-09T00:28:31.479Z,969.12
2023-02-09T00:28:42.015Z,969.12
2023-02-09T00:28:52.989Z,969.12
2023-02-09T00:29:03.756Z,969.12
2023-02-09T00:29:14.813Z,969.11
2023-02-09T00:29:25.786Z,969.11
2023-02-09T00:29:36.554Z,969.11
2023-02-09T00:29:47.603Z,969.11
2023-02-09T00:29:58.571Z,969.11
2023-02-09T00:30:09.349Z,969.11
2023-02-09T00:30:20.390Z,969.10
2023-02-09T00:30:31.453Z,969.09
2023-02-09T00:30:42.266Z,969.10
2023-02-09T00:30:52.787Z,969.09
2023-02-09T00:31:03.785Z,969.09
2023-02-09T00:31:14.554Z,969.10
2023-02-09T00:31:25.698Z,969.09
2023-02-09T00:31:36.179Z,969.09
2023-02-09T00:31:46.936Z,969.09
2023-02-09T00:31:58.007Z,969.09
2023-02-09T00:32:09.028Z,969.09
2023-02-09T00:32:19.731Z,969.08
2023-02-09T00:32:30.792Z,969.08
2023-02-09T00:32:41.748Z,969.07
2023-02-09T00:32:52.520Z,969.07
2023-02-09T00:33:03.565Z,969.07
2023-02-09T00:33:14.531Z,969.07
2023-02-09T00:33:25.312Z,969.07
2023-02-09T00:33:36.360Z,969.07
2023-02-09T00:33:47.331Z,969.07
2023-02-09T00:33:58.104Z,969.09
2023-02-09T00:34:09.149Z,969.09
2023-02-09T00:34:20.116Z,969.08
2023-02-09T00:34:30.887Z,969.08
2023-02-09T00:34:41.929Z,969.09
2023-02-09T00:34:52.895Z,969.07
2023-02-09T00:35:03.669Z,969.07
2023-02-09T00:35:14.712Z,969.08
2023-02-09T00:35:25.681Z,969.09
2023-02-09T00:35:36.448Z,969.08
2023-02-09T00:35:47.497Z,969.08
2023-02-09T00:35:58.471Z,969.08
2023-02-09T00:36:09.255Z,969.10
2023-02-09T00:36:20.317Z,969.10
2023-02-09T00:36:31.268Z,969.10
2023-02-09T00:36:42.037Z,969.08
2023-02-09T00:36:53.089Z,969.09
2023-02-09T00:37:04.062Z,969.09
2023-02-09T00:37:14.835Z,969.09
2023-02-09T00:37:25.883Z,969.09
2023-02-09T00:37:36.857Z,969.09
2023-02-09T00:37:47.627Z,969.08
2023-02-09T00:37:58.681Z,969.08
2023-02-09T00:38:09.648Z,969.08
2023-02-09T00:38:20.425Z,969.08
2023-02-09T00:38:31.488Z,969.08
2023-02-09T00:38:42.441Z,969.09
2023-02-09T00:38:53.211Z,969.08
2023-02-09T00:39:04.314Z,969.08
2023-02-09T00:39:15.264Z,969.08
2023-02-09T00:39:26.032Z,969.07
2023-02-09T00:39:37.079Z,969.08
2023-02-09T00:39:48.048Z,969.08
2023-02-09T00:39:58.842Z,969.08
2023-02-09T00:40:09.881Z,969.07
2023-02-09T00:40:20.868Z,969.07
2023-02-09T00:40:31.638Z,969.06
2023-02-09T00:40:42.919Z,969.06
2023-02-09T00:40:53.459Z,969.06
2023-02-09T00:41:04.239Z,969.05
2023-02-09T00:41:15.274Z,969.05
2023-02-09T00:41:26.239Z,969.06
2023-02-09T00:41:37.007Z,969.05
2023-02-09T00:41:48.057Z,969.06
2023-02-09T00:41:59.022Z,969.05
2023-02-09T00:42:09.791Z,969.05
2023-02-09T00:42:20.850Z,969.04
2023-02-09T00:42:31.851Z,969.04
2023-02-09T00:42:42.591Z,969.04
2023-02-09T00:42:53.640Z,969.04
2023-02-09T00:43:04.601Z,969.04
2023-02-09T00:43:15.368Z,969.04
2023-02-09T00:43:26.418Z,969.04
2023-02-09T00:43:37.412Z,969.04
2023-02-09T00:43:48.162Z,969.03
2023-02-09T00:43:59.207Z,969.03
2023-02-09T00:44:10.183Z,969.03
2023-02-09T00:44:20.965Z,969.02
2023-02-09T00:44:32.010Z,969.01
2023-02-09T00:44:42.986Z,969.00
2023-02-09T00:44:53.758Z,968.99
2023-02-09T00:45:04.808Z,968.98
2023-02-09T00:45:15.389Z,968.98
2023-02-09T00:45:26.161Z,968.97
2023-02-09T00:45:37.319Z,968.97
2023-02-09T00:45:48.279Z,968.97
2023-02-09T00:45:59.177Z,968.97
2023-02-09T00:46:09.746Z,968.97
2023-02-09T00:46:20.692Z,968.98
2023-02-09T00:46:31.453Z,968.97
2023-02-09T00:46:42.501Z,968.97
2023-02-09T00:46:53.465Z,968.97
2023-02-09T00:47:04.233Z,968.97
2023-02-09T00:47:15.277Z,968.96
2023-02-09T00:47:26.250Z,968.96
2023-02-09T00:47:37.054Z,968.96
2023-02-09T00:47:48.064Z,968.95
2023-02-09T00:47:59.022Z,968.96
2023-02-09T00:48:09.796Z,968.97
2023-02-09T00:48:20.838Z,968.97
2023-02-09T00:48:31.807Z,968.96
2023-02-09T00:48:42.594Z,968.96
2023-02-09T00:48:53.636Z,968.95
2023-02-09T00:49:04.610Z,968.94
2023-02-09T00:49:15.380Z,968.94
2023-02-09T00:49:26.425Z,968.94
2023-02-09T00:49:37.396Z,968.94
2023-02-09T00:49:48.160Z,968.94
2023-02-09T00:49:59.210Z,968.93
2023-02-09T00:50:10.172Z,968.92
2023-02-09T00:50:20.942Z,968.93
2023-02-09T00:50:31.989Z,968.91
2023-02-09T00:50:43.174Z,968.91
2023-02-09T00:50:53.975Z,968.91
2023-02-09T00:51:05.048Z,968.91
2023-02-09T00:51:16.002Z,968.90
2023-02-09T00:51:26.785Z,968.89
2023-02-09T00:51:37.819Z,968.90
2023-02-09T00:51:48.785Z,968.89
2023-02-09T00:51:59.561Z,968.89
2023-02-09T00:52:10.604Z,968.90
2023-02-09T00:52:21.575Z,968.89
2023-02-09T00:52:32.348Z,968.88
2023-02-09T00:52:43.392Z,968.87
2023-02-09T00:52:54.364Z,968.88
2023-02-09T00:53:05.132Z,968.87
2023-02-09T00:53:16.176Z,968.88
2023-02-09T00:53:27.144Z,968.87
2023-02-09T00:53:37.914Z,968.87
2023-02-09T00:53:48.974Z,968.87
2023-02-09T00:53:59.946Z,968.87
2023-02-09T00:54:10.715Z,968.89
2023-02-09T00:54:21.777Z,968.88
2023-02-09T00:54:32.739Z,968.87
2023-02-09T00:54:43.501Z,968.87
2023-02-09T00:54:54.552Z,968.87
2023-02-09T00:55:05.518Z,968.87
2023-02-09T00:55:16.287Z,968.87
2023-02-09T00:55:27.334Z,968.87
2023-02-09T00:55:38.299Z,968.87
2023-02-09T00:55:49.069Z,968.88
2023-02-09T00:56:00.123Z,968.88
2023-02-09T00:56:11.091Z,968.88
2023-02-09T00:56:21.859Z,968.89
2023-02-09T00:56:32.922Z,968.89
2023-02-09T00:56:43.880Z,968.88
2023-02-09T00:56:54.649Z,968.89
2023-02-09T00:57:05.745Z,968.89
2023-02-09T00:57:16.669Z,968.89
2023-02-09T00:57:27.436Z,968.89
2023-02-09T00:57:38.486Z,968.89
2023-02-09T00:57:49.457Z,968.89
2023-02-09T00:58:00.221Z,968.88
2023-02-09T00:58:11.272Z,968.89
2023-02-09T00:58:22.254Z,968.89
2023-02-09T00:58:33.007Z,968.90
2023-02-09T00:58:44.070Z,968.89
2023-02-09T00:58:55.028Z,968.90
2023-02-09T00:59:05.799Z,968.89
2023-02-09T00:59:16.860Z,968.90
2023-02-09T00:59:27.833Z,968.90
2023-02-09T00:59:38.595Z,968.89
2023-02-09T00:59:49.644Z,968.89
2023-02-09T01:00:00.610Z,968.90
2023-02-09T01:00:11.374Z,968.91
2023-02-09T01:00:22.427Z,968.91
2023-02-09T01:00:33.393Z,968.91
2023-02-09T01:00:44.463Z,968.91
2023-02-09T01:00:55.180Z,968.90
2023-02-09T01:01:06.172Z,968.92
2023-02-09T01:01:16.957Z,968.92
2023-02-09T01:01:28.176Z,968.91
2023-02-09T01:01:38.613Z,968.92
2023-02-09T01:01:49.361Z,968.92
2023-02-09T01:02:00.393Z,968.93
2023-02-09T01:02:11.360Z,968.93
2023-02-09T01:02:22.128Z,968.95
2023-02-09T01:02:33.179Z,968.95
2023-02-09T01:02:44.146Z,968.96
2023-02-09T01:02:54.915Z,968.97
2023-02-09T01:03:05.961Z,968.96
2023-02-09T01:03:16.928Z,968.96
2023-02-09T01:03:27.700Z,968.97
2023-02-09T01:03:38.745Z,968.98
2023-02-09T01:03:49.711Z,968.98
2023-02-09T01:04:00.496Z,968.99
2023-02-09T01:04:11.539Z,968.97
2023-02-09T01:04:22.625Z,968.98
2023-02-09T01:04:33.415Z,968.98
2023-02-09T01:04:44.469Z,968.99
2023-02-09T01:04:55.497Z,968.99
2023-02-09T01:05:06.215Z,969.00
2023-02-09T01:05:17.269Z,969.00
2023-02-09T01:05:28.229Z,969.00
2023-02-09T01:05:39.010Z,969.00
2023-02-09T01:05:50.051Z,969.00
2023-02-09T01:06:01.021Z,969.00
2023-02-09T01:06:11.786Z,969.00
2023-02-09T01:06:22.838Z,969.01
2023-02-09T01:06:33.794Z,969.02
2023-02-09T01:06:44.569Z,969.02
2023-02-09T01:06:55.624Z,969.03
2023-02-09T01:07:06.587Z,969.03
2023-02-09T01:07:17.354Z,969.04
2023-02-09T01:07:28.405Z,969.04
2023-02-09T01:07:39.382Z,969.04
2023-02-09T01:07:50.156Z,969.04
2023-02-09T01:08:01.214Z,969.03
2023-02-09T01:08:12.181Z,969.04
2023-02-09T01:08:22.979Z,969.03
2023-02-09T01:08:34.008Z,969.03
2023-02-09T01:08:44.985Z,969.03
2023-02-09T01:08:55.751Z,969.03
2023-02-09T01:09:06.805Z,969.03
2023-02-09T01:09:17.788Z,969.03
2023-02-09T01:09:28.544Z,969.02
2023-02-09T01:09:39.601Z,969.01
2023-02-09T01:09:50.569Z,969.01
2023-02-09T01:10:01.353Z,969.01
2023-02-09T01:10:12.381Z,969.02
2023-02-09T01:10:23.347Z,969.03
2023-02-09T01:10:34.123Z,969.01
2023-02-09T01:10:45.569Z,969.01
2023-02-09T01:10:56.056Z,969.01
2023-02-09T01:11:06.821Z,969.01
2023-02-09T01:11:17.871Z,969.01
2023-02-09T01:11:28.838Z,969.02
2023-02-09T01:11:39.663Z,969.02
2023-02-09T01:11:50.693Z,969.01
2023-02-09T01:12:01.737Z,969.01
2023-02-09T01:12:12.435Z,969.01
2023-02-09T01:12:23.485Z,969.01
2023-02-09T01:12:34.465Z,969.01
2023-02-09T01:12:45.230Z,969.01
2023-02-09T01:12:56.275Z,969.01
2023-02-09T01:13:07.248Z,969.01
2023-02-09T01:13:18.009Z,969.01
2023-02-09T01:13:29.059Z,969.00
2023-02-09T01:13:40.027Z,969.01
2023-02-09T01:13:50.830Z,969.00
2023-02-09T01:14:01.839Z,969.00
2023-02-09T01:14:12.820Z,969.01
2023-02-09T01:14:23.606Z,969.01
2023-02-09T01:14:34.654Z,969.01
2023-02-09T01:14:45.623Z,969.01
2023-02-09T01:14:56.407Z,968.99
2023-02-09T01:15:07.439Z,968.98
2023-02-09T01:15:18.407Z,968.99
2023-02-09T01:15:29.185Z,968.98
2023-02-09T01:15:40.231Z,968.98
2023-02-09T01:15:51.196Z,968.98
2023-02-09T01:16:01.973Z,968.98
2023-02-09T01:16:13.014Z,968.99
2023-02-09T01:16:24.027Z,968.98
2023-02-09T01:16:34.803Z,968.99
2023-02-09T01:16:45.850Z,968.97
2023-02-09T01:16:56.833Z,968.97
2023-02-09T01:17:07.649Z,968.96
2023-02-09T01:17:18.151Z,968.95
2023-02-09T01:17:29.111Z,968.96
2023-02-09T01:17:39.876Z,968.98
2023-02-09T01:17:50.928Z,968.98
2023-02-09T01:18:01.896Z,968.97
2023-02-09T01:18:12.670Z,968.97
2023-02-09T01:18:23.723Z,968.96
2023-02-09T01:18:34.684Z,968.96
2023-02-09T01:18:45.471Z,968.96
2023-02-09T01:18:56.506Z,968.97
2023-02-09T01:19:07.471Z,968.97
2023-02-09T01:19:18.248Z,968.97
2023-02-09T01:19:29.293Z,968.98
2023-02-09T01:19:40.264Z,968.98
2023-02-09T01:19:51.051Z,968.97
2023-02-09T01:20:02.120Z,968.98
2023-02-09T01:20:13.066Z,968.98
2023-02-09T01:20:23.844Z,968.98
2023-02-09T01:20:34.896Z,968.97
2023-02-09T01:20:46.178Z,968.97
2023-02-09T01:20:56.475Z,968.98
2023-02-09T01:21:07.536Z,968.99
2023-02-09T01:21:18.514Z,968.98
2023-02-09T01:21:29.271Z,968.96
2023-02-09T01:21:40.337Z,968.96
2023-02-09T01:21:51.293Z,968.97
2023-02-09T01:22:02.062Z,968.96
2023-02-09T01:22:13.116Z,968.95
2023-02-09T01:22:24.080Z,968.95
2023-02-09T01:22:34.855Z,968.94
2023-02-09T01:22:45.899Z,968.94
2023-02-09T01:22:56.875Z,968.93
2023-02-09T01:23:07.637Z,968.94
2023-02-09T01:23:18.688Z,968.93
2023-02-09T01:23:29.652Z,968.92
2023-02-09T01:23:40.421Z,968.92
2023-02-09T01:23:51.465Z,968.92
2023-02-09T01:24:02.432Z,968.93
2023-02-09T01:24:13.231Z,968.91
2023-02-09T01:24:24.302Z,968.91
2023-02-09T01:24:35.272Z,968.91
2023-02-09T01:24:46.038Z,968.90
2023-02-09T01:24:57.092Z,968.91
2023-02-09T01:25:08.062Z,968.92
2023-02-09T01:25:18.833Z,968.91
2023-02-09T01:25:29.904Z,968.91
2023-02-09T01:25:40.863Z,968.91
2023-02-09T01:25:51.643Z,968.90
2023-02-09T01:26:02.691Z,968.89
2023-02-09T01:26:13.666Z,968.89
2023-02-09T01:26:24.444Z,968.88
2023-02-09T01:26:35.482Z,968.88
2023-02-09T01:26:46.447Z,968.89
2023-02-09T01:26:57.218Z,968.89
2023-02-09T01:27:08.262Z,968.88
2023-02-09T01:27:19.235Z,968.89
2023-02-09T01:27:30.000Z,968.88
2023-02-09T01:27:41.056Z,968.88
2023-02-09T01:27:52.061Z,968.89
2023-02-09T01:28:03.006Z,968.90
2023-02-09T01:28:14.029Z,968.88
2023-02-09T01:28:25.008Z,968.88
2023-02-09T01:28:35.745Z,968.89
2023-02-09T01:28:46.786Z,968.88
2023-02-09T01:28:57.788Z,968.88
2023-02-09T01:29:08.525Z,968.88
2023-02-09T01:29:19.574Z,968.88
2023-02-09T01:29:30.576Z,968.89
2023-02-09T01:29:41.339Z,968.89
2023-02-09T01:29:52.386Z,968.90
2023-02-09T01:30:03.355Z,968.90
2023-02-09T01:30:14.124Z,968.90
2023-02-09T01:30:25.174Z,968.90
2023-02-09T01:30:36.215Z,968.91
2023-02-09T01:30:47.355Z,968.92
2023-02-09T01:30:57.732Z,968.92
2023-02-09T01:31:08.242Z,968.92
2023-02-09T01:31:19.143Z,968.91
2023-02-09T01:31:29.852Z,968.92
2023-02-09T01:31:40.478Z,968.92
2023-02-09T01:31:51.364Z,968.93
2023-02-09T01:32:02.073Z,968.93
2023-02-09T01:32:12.552Z,968.94
2023-02-09T01:32:23.288Z,968.95
2023-02-09T01:32:34.347Z,968.93
2023-02-09T01:32:45.312Z,968.93
2023-02-09T01:32:56.084Z,968.93
2023-02-09T01:33:07.129Z,968.93
2023-02-09T01:33:18.103Z,968.91
2023-02-09T01:33:28.879Z,968.92
2023-02-09T01:33:39.932Z,968.93
2023-02-09T01:33:50.902Z,968.93
2023-02-09T01:34:01.710Z,968.93
2023-02-09T01:34:12.737Z,968.92
2023-02-09T01:34:23.714Z,968.93
2023-02-09T01:34:34.495Z,968.92
2023-02-09T01:34:45.537Z,968.92
2023-02-09T01:34:56.508Z,968.92
2023-02-09T01:35:07.286Z,968.91
2023-02-09T01:35:18.334Z,968.90
2023-02-09T01:35:31.763Z,968.90
2023-02-09T01:35:40.029Z,968.89
2023-02-09T01:35:51.076Z,968.89
2023-02-09T01:36:02.046Z,968.89
2023-02-09T01:36:12.809Z,968.89
2023-02-09T01:36:23.866Z,968.88
2023-02-09T01:36:34.833Z,968.88
2023-02-09T01:36:45.601Z,968.87
2023-02-09T01:36:56.648Z,968.87
2023-02-09T01:37:07.625Z,968.87
2023-02-09T01:37:18.382Z,968.87
2023-02-09T01:37:29.440Z,968.87
2023-02-09T01:37:40.425Z,968.87
2023-02-09T01:37:51.188Z,968.88
2023-02-09T01:38:02.237Z,968.87
2023-02-09T01:38:13.205Z,968.87
2023-02-09T01:38:23.974Z,968.87
2023-02-09T01:38:35.027Z,968.87
2023-02-09T01:38:45.999Z,968.88
2023-02-09T01:38:56.781Z,968.87
2023-02-09T01:39:07.828Z,968.87
2023-02-09T01:39:18.791Z,968.87
2023-02-09T01:39:29.557Z,968.87
2023-02-09T01:39:40.614Z,968.87
2023-02-09T01:39:51.579Z,968.86
2023-02-09T01:40:02.360Z,968.86
2023-02-09T01:40:13.401Z,968.85
2023-02-09T01:40:24.371Z,968.85
2023-02-09T01:40:35.140Z,968.85
2023-02-09T01:40:46.492Z,968.85
2023-02-09T01:40:56.947Z,968.85
2023-02-09T01:41:07.715Z,968.85
2023-02-09T01:41:18.770Z,968.85
2023-02-09T01:41:29.760Z,968.83
2023-02-09T01:41:40.516Z,968.82
2023-02-09T01:41:51.574Z,968.83
2023-02-09T01:42:02.536Z,968.83
2023-02-09T01:42:13.304Z,968.83
2023-02-09T01:42:24.355Z,968.84
2023-02-09T01:42:35.322Z,968.83
2023-02-09T01:42:46.091Z,968.84
2023-02-09T01:42:57.137Z,968.84
2023-02-09T01:43:08.107Z,968.84
2023-02-09T01:43:18.890Z,968.82
2023-02-09T01:43:29.920Z,968.83
2023-02-09T01:43:40.891Z,968.83
2023-02-09T01:43:51.658Z,968.83
2023-02-09T01:44:02.755Z,968.84
2023-02-09T01:44:13.695Z,968.84
2023-02-09T01:44:24.471Z,968.85
2023-02-09T01:44:35.519Z,968.85
2023-02-09T01:44:46.493Z,968.86
2023-02-09T01:44:57.255Z,968.86
2023-02-09T01:45:08.312Z,968.85
2023-02-09T01:45:19.270Z,968.86
2023-02-09T01:45:30.040Z,968.85
2023-02-09T01:45:41.085Z,968.85
2023-02-09T01:45:52.112Z,968.85
2023-02-09T01:46:02.903Z,968.85
2023-02-09T01:46:13.962Z,968.85
2023-02-09T01:46:24.999Z,968.85
2023-02-09T01:46:35.881Z,968.84
2023-02-09T01:46:46.361Z,968.84
2023-02-09T01:46:57.326Z,968.83
2023-02-09T01:47:08.098Z,968.83
2023-02-09T01:47:19.145Z,968.83
2023-02-09T01:47:30.118Z,968.82
2023-02-09T01:47:40.882Z,968.82
2023-02-09T01:47:51.939Z,968.82
2023-02-09T01:48:02.913Z,968.81
2023-02-09T01:48:13.671Z,968.81
2023-02-09T01:48:24.716Z,968.81
2023-02-09T01:48:35.679Z,968.80
2023-02-09T01:48:46.462Z,968.80
2023-02-09T01:48:57.502Z,968.79
2023-02-09T01:49:08.476Z,968.80
2023-02-09T01:49:19.249Z,968.77
2023-02-09T01:49:30.312Z,968.76
2023-02-09T01:49:41.277Z,968.77
2023-02-09T01:49:52.033Z,968.76
2023-02-09T01:50:03.079Z,968.74
2023-02-09T01:50:14.063Z,968.74
2023-02-09T01:50:24.821Z,968.75
2023-02-09T01:50:35.861Z,968.75
2023-02-09T01:50:47.159Z,968.75
2023-02-09T01:50:57.430Z,968.74
2023-02-09T01:51:08.478Z,968.72
2023-02-09T01:51:19.443Z,968.73
2023-02-09T01:51:30.236Z,968.72
2023-02-09T01:51:41.272Z,968.72
2023-02-09T01:51:52.239Z,968.71
2023-02-09T01:52:03.049Z,968.72
2023-02-09T01:52:14.047Z,968.73
2023-02-09T01:52:25.016Z,968.73
2023-02-09T01:52:35.783Z,968.73
2023-02-09T01:52:46.825Z,968.73
2023-02-09T01:52:57.812Z,968.73
2023-02-09T01:53:08.560Z,968.74
2023-02-09T01:53:19.607Z,968.75
2023-02-09T01:53:30.572Z,968.75
2023-02-09T01:53:41.341Z,968.75
2023-02-09T01:53:52.389Z,968.75
2023-02-09T01:54:03.365Z,968.76
2023-02-09T01:54:14.122Z,968.76
2023-02-09T01:54:25.174Z,968.75
2023-02-09T01:54:36.138Z,968.77
2023-02-09T01:54:46.926Z,968.77
2023-02-09T01:54:57.963Z,968.77
2023-02-09T01:55:08.934Z,968.77
2023-02-09T01:55:19.709Z,968.78
2023-02-09T01:55:30.760Z,968.78
2023-02-09T01:55:41.721Z,968.78
2023-02-09T01:55:52.493Z,968.77
2023-02-09T01:56:03.560Z,968.76
2023-02-09T01:56:14.514Z,968.76
2023-02-09T01:56:25.283Z,968.75
2023-02-09T01:56:36.335Z,968.75
2023-02-09T01:56:47.294Z,968.74
2023-02-09T01:56:58.076Z,968.73
2023-02-09T01:57:09.124Z,968.74
2023-02-09T01:57:20.092Z,968.74
2023-02-09T01:57:30.868Z,968.74
2023-02-09T01:57:41.915Z,968.74
2023-02-09T01:57:52.894Z,968.74
2023-02-09T01:58:03.651Z,968.73
2023-02-09T01:58:14.697Z,968.71
2023-02-09T01:58:25.662Z,968.71
2023-02-09T01:58:36.431Z,968.71
2023-02-09T01:58:47.482Z,968.71
2023-02-09T01:58:58.448Z,968.70
2023-02-09T01:59:09.245Z,968.71
2023-02-09T01:59:20.275Z,968.70
2023-02-09T01:59:31.243Z,968.69
2023-02-09T01:59:42.021Z,968.70
2023-02-09T01:59:53.069Z,968.69
2023-02-09T02:00:04.034Z,968.69
2023-02-09T02:00:14.815Z,968.68
2023-02-09T02:00:25.859Z,968.68
2023-02-09T02:00:36.833Z,968.67
2023-02-09T02:00:47.857Z,968.68
2023-02-09T02:01:00.063Z,968.68
2023-02-09T02:01:09.106Z,968.68
2023-02-09T02:01:19.888Z,968.68
2023-02-09T02:01:30.964Z,968.67
2023-02-09T02:01:41.928Z,968.67
2023-02-09T02:01:52.653Z,968.66
2023-02-09T02:02:03.706Z,968.66
2023-02-09T02:02:14.736Z,968.67
2023-02-09T02:02:25.497Z,968.67
2023-02-09T02:02:36.546Z,968.66
2023-02-09T02:02:47.581Z,968.66
2023-02-09T02:02:58.303Z,968.66
2023-02-09T02:03:09.359Z,968.66
2023-02-09T02:03:20.318Z,968.67
2023-02-09T02:03:31.100Z,968.67
2023-02-09T02:03:42.137Z,968.65
2023-02-09T02:03:53.108Z,968.66
2023-02-09T02:04:03.869Z,968.65
2023-02-09T02:04:14.921Z,968.65
2023-02-09T02:04:25.886Z,968.65
2023-02-09T02:04:36.652Z,968.64
2023-02-09T02:04:47.698Z,968.63
2023-02-09T02:04:58.674Z,968.62
2023-02-09T02:05:09.446Z,968.63
2023-02-09T02:05:20.488Z,968.62
2023-02-09T02:05:31.460Z,968.62
2023-02-09T02:05:42.239Z,968.62
2023-02-09T02:05:53.282Z,968.62
2023-02-09T02:06:04.312Z,968.63
2023-02-09T02:06:15.027Z,968.61
2023-02-09T02:06:26.072Z,968.61
2023-02-09T02:06:37.084Z,968.61
2023-02-09T02:06:47.830Z,968.61
2023-02-09T02:06:58.879Z,968.62
2023-02-09T02:07:09.840Z,968.61
2023-02-09T02:07:20.629Z,968.61
2023-02-09T02:07:31.654Z,968.60
2023-02-09T02:07:42.620Z,968.60
2023-02-09T02:07:53.392Z,968.60
2023-02-09T02:08:04.457Z,968.60
2023-02-09T02:08:15.449Z,968.60
2023-02-09T02:08:26.217Z,968.60
2023-02-09T02:08:37.267Z,968.60
2023-02-09T02:08:48.231Z,968.59
2023-02-09T02:08:59.005Z,968.59
2023-02-09T02:09:10.048Z,968.59
2023-02-09T02:09:21.012Z,968.58
2023-02-09T02:09:31.778Z,968.57
2023-02-09T02:09:42.828Z,968.56
2023-02-09T02:09:53.792Z,968.56
2023-02-09T02:10:04.592Z,968.57
2023-02-09T02:10:15.623Z,968.55
2023-02-09T02:10:26.594Z,968.53
2023-02-09T02:10:37.375Z,968.54
2023-02-09T02:10:48.423Z,968.53
2023-02-09T02:10:59.390Z,968.52
2023-02-09T02:11:10.169Z,968.53
2023-02-09T02:11:21.207Z,968.52
2023-02-09T02:11:32.175Z,968.52
2023-02-09T02:11:42.940Z,968.51
2023-02-09T02:11:53.987Z,968.52
2023-02-09T02:12:04.953Z,968.51
2023-02-09T02:12:15.722Z,968.51
2023-02-09T02:12:26.772Z,968.52
2023-02-09T02:12:37.739Z,968.52
2023-02-09T02:12:48.508Z,968.52
2023-02-09T02:12:59.556Z,968.51
2023-02-09T02:13:10.524Z,968.52
2023-02-09T02:13:21.296Z,968.52
2023-02-09T02:13:32.349Z,968.51
2023-02-09T02:13:43.315Z,968.51
2023-02-09T02:13:54.095Z,968.52
2023-02-09T02:14:05.138Z,968.52
2023-02-09T02:14:16.118Z,968.52
2023-02-09T02:14:26.864Z,968.53
2023-02-09T02:14:37.912Z,968.54
2023-02-09T02:14:48.880Z,968.53
2023-02-09T02:14:59.650Z,968.53
2023-02-09T02:15:10.705Z,968.54
2023-02-09T02:15:21.671Z,968.54
2023-02-09T02:15:32.471Z,968.55
2023-02-09T02:15:43.545Z,968.54
2023-02-09T02:15:54.591Z,968.54
2023-02-09T02:16:05.408Z,968.53
2023-02-09T02:16:16.069Z,968.54